sensor_id;sensor_type;location;lat;lon;timestamp;P1;durP1;ratioP1;P2;durP2;ratioP2
23868;SDS011;12115;47.128;15.422;2022-08-18T00:01:17;4.75;;;3.28;;
23868;SDS011;12115;47.128;15.422;2022-08-18T00:03:44;7.00;;;3.53;;
23868;SDS011;12115;47.128;15.422;2022-08-18T00:06:25;7.38;;;3.50;;
23868;SDS011;12115;47.128;15.422;2022-08-18T00:08:56;3.97;;;3.40;;
23868;SDS011;12115;47.128;15.422;2022-08-18T00:11:25;7.07;;;3.35;;
23868;SDS011;12115;47.128;15.422;2022-08-18T00:16:39;5.15;;;3.53;;
23868;SDS011;12115;47.128;15.422;2022-08-18T00:19:06;7.75;;;3.55;;
23868;SDS011;12115;47.128;15.422;2022-08-18T00:21:35;6.60;;;3.65;;
23868;SDS011;12115;47.128;15.422;2022-08-18T00:24:02;6.47;;;3.85;;
23868;SDS011;12115;47.128;15.422;2022-08-18T00:26:30;5.32;;;4.30;;
23868;SDS011;12115;47.128;15.422;2022-08-18T00:29:02;4.32;;;3.55;;
23868;SDS011;12115;47.128;15.422;2022-08-18T00:31:29;6.05;;;3.85;;
23868;SDS011;12115;47.128;15.422;2022-08-18T00:33:56;4.47;;;3.65;;
23868;SDS011;12115;47.128;15.422;2022-08-18T00:36:24;5.00;;;3.80;;
23868;SDS011;12115;47.128;15.422;2022-08-18T00:38:53;5.32;;;3.90;;
23868;SDS011;12115;47.128;15.422;2022-08-18T00:41:20;7.32;;;3.67;;
23868;SDS011;12115;47.128;15.422;2022-08-18T00:46:22;6.93;;;3.85;;
23868;SDS011;12115;47.128;15.422;2022-08-18T00:48:51;4.32;;;3.78;;
23868;SDS011;12115;47.128;15.422;2022-08-18T00:54:05;5.47;;;3.60;;
23868;SDS011;12115;47.128;15.422;2022-08-18T00:56:38;4.85;;;3.90;;
23868;SDS011;12115;47.128;15.422;2022-08-18T01:02:36;3.80;;;3.40;;
23868;SDS011;12115;47.128;15.422;2022-08-18T01:07:52;6.20;;;3.80;;
23868;SDS011;12115;47.128;15.422;2022-08-18T01:10:20;4.97;;;3.70;;
23868;SDS011;12115;47.128;15.422;2022-08-18T01:12:50;4.78;;;3.67;;
23868;SDS011;12115;47.128;15.422;2022-08-18T01:15:20;5.93;;;4.10;;
23868;SDS011;12115;47.128;15.422;2022-08-18T01:17:59;5.65;;;3.80;;
23868;SDS011;12115;47.128;15.422;2022-08-18T01:20:53;4.75;;;4.32;;
23868;SDS011;12115;47.128;15.422;2022-08-18T01:23:54;6.68;;;3.78;;
23868;SDS011;12115;47.128;15.422;2022-08-18T01:26:23;5.72;;;4.00;;
23868;SDS011;12115;47.128;15.422;2022-08-18T01:28:52;5.80;;;3.90;;
23868;SDS011;12115;47.128;15.422;2022-08-18T01:31:30;9.82;;;3.78;;
23868;SDS011;12115;47.128;15.422;2022-08-18T01:34:04;5.35;;;4.38;;
23868;SDS011;12115;47.128;15.422;2022-08-18T01:36:33;6.78;;;3.97;;
23868;SDS011;12115;47.128;15.422;2022-08-18T01:39:04;8.38;;;4.15;;
23868;SDS011;12115;47.128;15.422;2022-08-18T01:41:34;5.63;;;3.60;;
23868;SDS011;12115;47.128;15.422;2022-08-18T01:44:02;6.05;;;4.15;;
23868;SDS011;12115;47.128;15.422;2022-08-18T01:46:30;6.00;;;3.78;;
23868;SDS011;12115;47.128;15.422;2022-08-18T01:48:59;6.47;;;4.65;;
23868;SDS011;12115;47.128;15.422;2022-08-18T01:51:27;4.60;;;4.10;;
23868;SDS011;12115;47.128;15.422;2022-08-18T01:54:05;5.40;;;4.00;;
23868;SDS011;12115;47.128;15.422;2022-08-18T01:56:38;6.57;;;4.38;;
23868;SDS011;12115;47.128;15.422;2022-08-18T01:59:08;6.70;;;4.80;;
23868;SDS011;12115;47.128;15.422;2022-08-18T02:01:41;4.93;;;4.18;;
23868;SDS011;12115;47.128;15.422;2022-08-18T02:04:19;6.85;;;3.85;;
23868;SDS011;12115;47.128;15.422;2022-08-18T02:07:03;4.15;;;3.72;;
23868;SDS011;12115;47.128;15.422;2022-08-18T02:12:03;5.15;;;3.75;;
23868;SDS011;12115;47.128;15.422;2022-08-18T02:14:33;7.10;;;4.82;;
23868;SDS011;12115;47.128;15.422;2022-08-18T02:17:01;5.45;;;4.15;;
23868;SDS011;12115;47.128;15.422;2022-08-18T02:19:32;4.45;;;4.03;;
23868;SDS011;12115;47.128;15.422;2022-08-18T02:22:00;5.90;;;4.00;;
23868;SDS011;12115;47.128;15.422;2022-08-18T02:24:28;4.88;;;3.80;;
23868;SDS011;12115;47.128;15.422;2022-08-18T02:26:55;5.45;;;3.85;;
23868;SDS011;12115;47.128;15.422;2022-08-18T02:29:22;5.13;;;4.63;;
23868;SDS011;12115;47.128;15.422;2022-08-18T02:31:49;6.25;;;3.80;;
23868;SDS011;12115;47.128;15.422;2022-08-18T02:34:16;4.60;;;4.18;;
23868;SDS011;12115;47.128;15.422;2022-08-18T02:36:44;5.15;;;3.80;;
23868;SDS011;12115;47.128;15.422;2022-08-18T02:39:11;6.95;;;4.75;;
23868;SDS011;12115;47.128;15.422;2022-08-18T02:41:39;4.07;;;3.70;;
23868;SDS011;12115;47.128;15.422;2022-08-18T02:44:06;5.20;;;3.92;;
23868;SDS011;12115;47.128;15.422;2022-08-18T02:46:34;8.57;;;4.45;;
23868;SDS011;12115;47.128;15.422;2022-08-18T02:49:02;6.05;;;4.30;;
23868;SDS011;12115;47.128;15.422;2022-08-18T02:51:30;4.75;;;3.95;;
23868;SDS011;12115;47.128;15.422;2022-08-18T02:53:57;6.55;;;3.72;;
23868;SDS011;12115;47.128;15.422;2022-08-18T02:56:26;4.93;;;3.90;;
23868;SDS011;12115;47.128;15.422;2022-08-18T02:59:10;5.45;;;4.03;;
23868;SDS011;12115;47.128;15.422;2022-08-18T03:01:40;5.53;;;4.05;;
23868;SDS011;12115;47.128;15.422;2022-08-18T03:04:13;5.10;;;4.07;;
23868;SDS011;12115;47.128;15.422;2022-08-18T03:06:43;5.28;;;4.45;;
23868;SDS011;12115;47.128;15.422;2022-08-18T03:09:12;6.30;;;4.65;;
23868;SDS011;12115;47.128;15.422;2022-08-18T03:11:41;4.93;;;4.30;;
23868;SDS011;12115;47.128;15.422;2022-08-18T03:14:09;5.53;;;4.43;;
23868;SDS011;12115;47.128;15.422;2022-08-18T03:16:41;5.53;;;4.60;;
23868;SDS011;12115;47.128;15.422;2022-08-18T03:19:21;5.75;;;5.13;;
23868;SDS011;12115;47.128;15.422;2022-08-18T03:21:54;7.03;;;4.15;;
23868;SDS011;12115;47.128;15.422;2022-08-18T03:24:29;4.95;;;4.50;;
23868;SDS011;12115;47.128;15.422;2022-08-18T03:26:58;5.40;;;4.53;;
23868;SDS011;12115;47.128;15.422;2022-08-18T03:29:26;5.43;;;4.53;;
23868;SDS011;12115;47.128;15.422;2022-08-18T03:31:59;5.80;;;4.88;;
23868;SDS011;12115;47.128;15.422;2022-08-18T03:34:27;8.43;;;5.38;;
23868;SDS011;12115;47.128;15.422;2022-08-18T03:36:55;6.82;;;5.00;;
23868;SDS011;12115;47.128;15.422;2022-08-18T03:39:22;7.57;;;4.85;;
23868;SDS011;12115;47.128;15.422;2022-08-18T03:41:50;5.63;;;5.13;;
23868;SDS011;12115;47.128;15.422;2022-08-18T03:44:30;8.77;;;5.28;;
23868;SDS011;12115;47.128;15.422;2022-08-18T03:46:59;5.40;;;4.75;;
23868;SDS011;12115;47.128;15.422;2022-08-18T03:49:30;7.32;;;5.03;;
23868;SDS011;12115;47.128;15.422;2022-08-18T03:51:59;5.80;;;5.30;;
23868;SDS011;12115;47.128;15.422;2022-08-18T03:54:27;7.85;;;5.18;;
23868;SDS011;12115;47.128;15.422;2022-08-18T03:56:56;6.22;;;4.65;;
23868;SDS011;12115;47.128;15.422;2022-08-18T03:59:41;6.07;;;4.90;;
23868;SDS011;12115;47.128;15.422;2022-08-18T04:02:09;7.22;;;4.65;;
23868;SDS011;12115;47.128;15.422;2022-08-18T04:04:36;8.80;;;5.53;;
23868;SDS011;12115;47.128;15.422;2022-08-18T04:07:09;7.18;;;5.00;;
23868;SDS011;12115;47.128;15.422;2022-08-18T04:09:37;6.47;;;5.25;;
23868;SDS011;12115;47.128;15.422;2022-08-18T04:12:06;8.60;;;5.40;;
23868;SDS011;12115;47.128;15.422;2022-08-18T04:14:41;8.77;;;5.43;;
23868;SDS011;12115;47.128;15.422;2022-08-18T04:17:14;6.85;;;5.28;;
23868;SDS011;12115;47.128;15.422;2022-08-18T04:19:53;7.20;;;5.15;;
23868;SDS011;12115;47.128;15.422;2022-08-18T04:22:21;6.82;;;4.53;;
23868;SDS011;12115;47.128;15.422;2022-08-18T04:24:49;5.95;;;4.65;;
23868;SDS011;12115;47.128;15.422;2022-08-18T04:27:17;6.75;;;4.78;;
23868;SDS011;12115;47.128;15.422;2022-08-18T04:29:46;5.43;;;4.65;;
23868;SDS011;12115;47.128;15.422;2022-08-18T04:32:13;8.32;;;4.75;;
23868;SDS011;12115;47.128;15.422;2022-08-18T04:34:40;8.32;;;5.07;;
23868;SDS011;12115;47.128;15.422;2022-08-18T04:37:07;7.35;;;5.07;;
23868;SDS011;12115;47.128;15.422;2022-08-18T04:39:35;6.30;;;5.70;;
23868;SDS011;12115;47.128;15.422;2022-08-18T04:42:02;7.20;;;5.25;;
23868;SDS011;12115;47.128;15.422;2022-08-18T04:44:31;7.28;;;5.82;;
23868;SDS011;12115;47.128;15.422;2022-08-18T04:46:59;7.68;;;5.32;;
23868;SDS011;12115;47.128;15.422;2022-08-18T04:49:27;7.47;;;5.35;;
23868;SDS011;12115;47.128;15.422;2022-08-18T04:51:55;6.13;;;5.20;;
23868;SDS011;12115;47.128;15.422;2022-08-18T04:55:02;9.20;;;5.57;;
23868;SDS011;12115;47.128;15.422;2022-08-18T04:57:29;7.85;;;5.30;;
23868;SDS011;12115;47.128;15.422;2022-08-18T05:00:00;8.52;;;5.10;;
23868;SDS011;12115;47.128;15.422;2022-08-18T05:02:30;7.40;;;5.35;;
23868;SDS011;12115;47.128;15.422;2022-08-18T05:04:58;6.50;;;5.07;;
23868;SDS011;12115;47.128;15.422;2022-08-18T05:07:28;7.28;;;5.50;;
23868;SDS011;12115;47.128;15.422;2022-08-18T05:09:55;6.47;;;4.68;;
23868;SDS011;12115;47.128;15.422;2022-08-18T05:12:23;6.10;;;4.53;;
23868;SDS011;12115;47.128;15.422;2022-08-18T05:14:52;5.10;;;4.60;;
23868;SDS011;12115;47.128;15.422;2022-08-18T05:17:22;5.85;;;4.55;;
23868;SDS011;12115;47.128;15.422;2022-08-18T05:19:56;7.03;;;4.90;;
23868;SDS011;12115;47.128;15.422;2022-08-18T05:22:27;6.70;;;4.57;;
23868;SDS011;12115;47.128;15.422;2022-08-18T05:24:56;4.15;;;3.75;;
23868;SDS011;12115;47.128;15.422;2022-08-18T05:27:41;7.10;;;4.88;;
23868;SDS011;12115;47.128;15.422;2022-08-18T05:30:09;4.60;;;4.20;;
23868;SDS011;12115;47.128;15.422;2022-08-18T05:32:41;8.00;;;5.05;;
23868;SDS011;12115;47.128;15.422;2022-08-18T05:35:17;6.65;;;5.20;;
23868;SDS011;12115;47.128;15.422;2022-08-18T05:41:02;4.10;;;3.70;;
23868;SDS011;12115;47.128;15.422;2022-08-18T05:43:39;13.30;;;5.57;;
23868;SDS011;12115;47.128;15.422;2022-08-18T05:46:17;5.80;;;5.05;;
23868;SDS011;12115;47.128;15.422;2022-08-18T05:48:47;9.75;;;5.22;;
23868;SDS011;12115;47.128;15.422;2022-08-18T05:51:17;7.90;;;4.93;;
23868;SDS011;12115;47.128;15.422;2022-08-18T05:53:50;8.00;;;5.20;;
23868;SDS011;12115;47.128;15.422;2022-08-18T05:56:36;6.15;;;5.53;;
23868;SDS011;12115;47.128;15.422;2022-08-18T05:59:14;5.55;;;4.72;;
23868;SDS011;12115;47.128;15.422;2022-08-18T06:01:54;8.35;;;5.57;;
23868;SDS011;12115;47.128;15.422;2022-08-18T06:07:01;7.22;;;4.07;;
23868;SDS011;12115;47.128;15.422;2022-08-18T06:09:32;6.63;;;4.47;;
23868;SDS011;12115;47.128;15.422;2022-08-18T06:12:06;13.05;;;5.53;;
23868;SDS011;12115;47.128;15.422;2022-08-18T06:14:41;8.02;;;5.68;;
23868;SDS011;12115;47.128;15.422;2022-08-18T06:28:21;9.65;;;5.20;;
23868;SDS011;12115;47.128;15.422;2022-08-18T06:31:00;9.38;;;4.88;;
23868;SDS011;12115;47.128;15.422;2022-08-18T06:33:39;8.13;;;5.53;;
23868;SDS011;12115;47.128;15.422;2022-08-18T06:36:26;6.00;;;5.40;;
23868;SDS011;12115;47.128;15.422;2022-08-18T06:41:38;7.45;;;4.55;;
23868;SDS011;12115;47.128;15.422;2022-08-18T06:44:12;8.20;;;4.55;;
23868;SDS011;12115;47.128;15.422;2022-08-18T06:46:53;9.68;;;5.13;;
23868;SDS011;12115;47.128;15.422;2022-08-18T06:49:36;6.53;;;5.05;;
23868;SDS011;12115;47.128;15.422;2022-08-18T06:54:58;9.45;;;5.35;;
23868;SDS011;12115;47.128;15.422;2022-08-18T06:57:34;9.68;;;5.22;;
23868;SDS011;12115;47.128;15.422;2022-08-18T07:05:24;7.53;;;4.95;;
23868;SDS011;12115;47.128;15.422;2022-08-18T07:10:44;10.40;;;5.40;;
23868;SDS011;12115;47.128;15.422;2022-08-18T07:15:45;14.02;;;5.50;;
23868;SDS011;12115;47.128;15.422;2022-08-18T07:18:20;13.55;;;5.40;;
23868;SDS011;12115;47.128;15.422;2022-08-18T07:20:54;10.13;;;5.75;;
23868;SDS011;12115;47.128;15.422;2022-08-18T07:23:28;12.32;;;5.03;;
23868;SDS011;12115;47.128;15.422;2022-08-18T07:28:36;7.43;;;5.18;;
23868;SDS011;12115;47.128;15.422;2022-08-18T07:37:01;16.33;;;5.00;;
23868;SDS011;12115;47.128;15.422;2022-08-18T07:39:37;10.48;;;5.13;;
23868;SDS011;12115;47.128;15.422;2022-08-18T07:45:41;12.75;;;5.00;;
23868;SDS011;12115;47.128;15.422;2022-08-18T07:54:07;12.18;;;5.45;;
23868;SDS011;12115;47.128;15.422;2022-08-18T08:05:00;10.45;;;4.80;;
23868;SDS011;12115;47.128;15.422;2022-08-18T08:10:29;11.00;;;4.72;;
23868;SDS011;12115;47.128;15.422;2022-08-18T08:21:15;10.10;;;3.90;;
23868;SDS011;12115;47.128;15.422;2022-08-18T08:29:18;8.52;;;3.17;;
23868;SDS011;12115;47.128;15.422;2022-08-18T08:32:10;5.20;;;3.05;;
23868;SDS011;12115;47.128;15.422;2022-08-18T08:40:15;6.50;;;2.63;;
23868;SDS011;12115;47.128;15.422;2022-08-18T08:43:12;7.82;;;2.85;;
23868;SDS011;12115;47.128;15.422;2022-08-18T08:45:59;7.38;;;2.97;;
23868;SDS011;12115;47.128;15.422;2022-08-18T08:48:36;11.10;;;2.88;;
23868;SDS011;12115;47.128;15.422;2022-08-18T08:54:20;5.35;;;2.47;;
23868;SDS011;12115;47.128;15.422;2022-08-18T08:56:49;8.60;;;2.70;;
23868;SDS011;12115;47.128;15.422;2022-08-18T08:59:20;6.25;;;3.00;;
23868;SDS011;12115;47.128;15.422;2022-08-18T09:05:08;10.57;;;3.05;;
23868;SDS011;12115;47.128;15.422;2022-08-18T09:08:06;8.75;;;2.60;;
23868;SDS011;12115;47.128;15.422;2022-08-18T09:21:40;8.88;;;3.10;;
23868;SDS011;12115;47.128;15.422;2022-08-18T09:24:28;5.35;;;2.47;;
23868;SDS011;12115;47.128;15.422;2022-08-18T09:37:25;9.88;;;3.42;;
23868;SDS011;12115;47.128;15.422;2022-08-18T09:40:10;9.52;;;3.35;;
23868;SDS011;12115;47.128;15.422;2022-08-18T09:43:28;7.45;;;2.72;;
23868;SDS011;12115;47.128;15.422;2022-08-18T09:45:57;7.15;;;3.03;;
23868;SDS011;12115;47.128;15.422;2022-08-18T09:48:28;6.47;;;2.70;;
23868;SDS011;12115;47.128;15.422;2022-08-18T09:51:14;9.98;;;3.28;;
23868;SDS011;12115;47.128;15.422;2022-08-18T09:56:54;14.18;;;3.05;;
23868;SDS011;12115;47.128;15.422;2022-08-18T10:07:48;12.80;;;2.97;;
23868;SDS011;12115;47.128;15.422;2022-08-18T10:13:28;8.23;;;2.70;;
23868;SDS011;12115;47.128;15.422;2022-08-18T10:19:47;12.40;;;3.05;;
23868;SDS011;12115;47.128;15.422;2022-08-18T10:22:33;10.50;;;3.00;;
23868;SDS011;12115;47.128;15.422;2022-08-18T10:25:09;11.40;;;3.03;;
23868;SDS011;12115;47.128;15.422;2022-08-18T10:27:52;7.57;;;2.53;;
23868;SDS011;12115;47.128;15.422;2022-08-18T10:36:32;10.40;;;2.55;;
23868;SDS011;12115;47.128;15.422;2022-08-18T10:39:12;9.40;;;2.60;;
23868;SDS011;12115;47.128;15.422;2022-08-18T10:41:49;12.50;;;3.03;;
23868;SDS011;12115;47.128;15.422;2022-08-18T10:44:24;9.48;;;2.70;;
23868;SDS011;12115;47.128;15.422;2022-08-18T10:46:55;6.20;;;2.75;;
23868;SDS011;12115;47.128;15.422;2022-08-18T10:49:26;8.10;;;2.75;;
23868;SDS011;12115;47.128;15.422;2022-08-18T10:55:01;10.30;;;2.40;;
23868;SDS011;12115;47.128;15.422;2022-08-18T11:00:51;7.05;;;2.60;;
23868;SDS011;12115;47.128;15.422;2022-08-18T11:06:21;10.70;;;3.25;;
23868;SDS011;12115;47.128;15.422;2022-08-18T11:08:54;8.43;;;2.53;;
23868;SDS011;12115;47.128;15.422;2022-08-18T11:11:29;9.88;;;2.58;;
23868;SDS011;12115;47.128;15.422;2022-08-18T11:20:00;13.82;;;3.15;;
23868;SDS011;12115;47.128;15.422;2022-08-18T11:22:31;12.13;;;3.08;;
23868;SDS011;12115;47.128;15.422;2022-08-18T11:25:22;12.93;;;2.80;;
23868;SDS011;12115;47.128;15.422;2022-08-18T11:28:14;8.65;;;2.45;;
23868;SDS011;12115;47.128;15.422;2022-08-18T11:30:47;7.00;;;2.72;;
23868;SDS011;12115;47.128;15.422;2022-08-18T11:33:20;9.60;;;2.67;;
23868;SDS011;12115;47.128;15.422;2022-08-18T11:35:56;13.68;;;2.75;;
23868;SDS011;12115;47.128;15.422;2022-08-18T11:38:27;10.45;;;2.80;;
23868;SDS011;12115;47.128;15.422;2022-08-18T11:41:14;11.65;;;3.25;;
23868;SDS011;12115;47.128;15.422;2022-08-18T11:43:44;11.10;;;3.05;;
23868;SDS011;12115;47.128;15.422;2022-08-18T11:49:17;16.30;;;2.80;;
23868;SDS011;12115;47.128;15.422;2022-08-18T11:52:19;13.57;;;3.33;;
23868;SDS011;12115;47.128;15.422;2022-08-18T11:55:01;10.68;;;3.00;;
23868;SDS011;12115;47.128;15.422;2022-08-18T11:57:51;13.57;;;3.30;;
23868;SDS011;12115;47.128;15.422;2022-08-18T12:00:38;11.23;;;2.65;;
23868;SDS011;12115;47.128;15.422;2022-08-18T12:03:28;18.20;;;2.90;;
23868;SDS011;12115;47.128;15.422;2022-08-18T12:05:57;11.05;;;3.33;;
23868;SDS011;12115;47.128;15.422;2022-08-18T12:08:50;14.48;;;3.13;;
23868;SDS011;12115;47.128;15.422;2022-08-18T12:11:26;8.48;;;2.58;;
23868;SDS011;12115;47.128;15.422;2022-08-18T12:14:09;13.15;;;2.97;;
23868;SDS011;12115;47.128;15.422;2022-08-18T12:16:59;15.00;;;2.80;;
23868;SDS011;12115;47.128;15.422;2022-08-18T12:19:27;12.02;;;2.72;;
23868;SDS011;12115;47.128;15.422;2022-08-18T12:21:59;7.75;;;2.92;;
23868;SDS011;12115;47.128;15.422;2022-08-18T12:24:38;12.00;;;2.53;;
23868;SDS011;12115;47.128;15.422;2022-08-18T12:27:05;12.73;;;2.78;;
23868;SDS011;12115;47.128;15.422;2022-08-18T12:29:46;12.77;;;3.10;;
23868;SDS011;12115;47.128;15.422;2022-08-18T12:32:14;10.70;;;3.08;;
23868;SDS011;12115;47.128;15.422;2022-08-18T12:35:02;16.83;;;3.03;;
23868;SDS011;12115;47.128;15.422;2022-08-18T12:37:50;10.88;;;2.80;;
23868;SDS011;12115;47.128;15.422;2022-08-18T12:40:38;11.77;;;3.20;;
23868;SDS011;12115;47.128;15.422;2022-08-18T12:43:05;9.73;;;2.90;;
23868;SDS011;12115;47.128;15.422;2022-08-18T12:45:33;14.98;;;2.83;;
23868;SDS011;12115;47.128;15.422;2022-08-18T12:48:03;12.18;;;3.08;;
23868;SDS011;12115;47.128;15.422;2022-08-18T12:50:32;10.25;;;2.60;;
23868;SDS011;12115;47.128;15.422;2022-08-18T12:53:19;12.52;;;2.80;;
23868;SDS011;12115;47.128;15.422;2022-08-18T12:56:07;10.32;;;2.58;;
23868;SDS011;12115;47.128;15.422;2022-08-18T12:58:46;12.52;;;3.15;;
23868;SDS011;12115;47.128;15.422;2022-08-18T13:01:16;12.57;;;2.72;;
23868;SDS011;12115;47.128;15.422;2022-08-18T13:03:45;14.48;;;3.17;;
23868;SDS011;12115;47.128;15.422;2022-08-18T13:06:33;13.35;;;2.97;;
23868;SDS011;12115;47.128;15.422;2022-08-18T13:09:06;11.23;;;2.42;;
23868;SDS011;12115;47.128;15.422;2022-08-18T13:11:53;15.48;;;3.40;;
23868;SDS011;12115;47.128;15.422;2022-08-18T13:14:20;20.52;;;3.22;;
23868;SDS011;12115;47.128;15.422;2022-08-18T13:16:48;19.63;;;3.05;;
23868;SDS011;12115;47.128;15.422;2022-08-18T13:19:20;20.50;;;3.97;;
23868;SDS011;12115;47.128;15.422;2022-08-18T13:21:47;14.65;;;3.15;;
23868;SDS011;12115;47.128;15.422;2022-08-18T13:24:14;16.85;;;3.80;;
23868;SDS011;12115;47.128;15.422;2022-08-18T13:26:47;19.13;;;3.92;;
23868;SDS011;12115;47.128;15.422;2022-08-18T13:29:17;15.85;;;3.97;;
23868;SDS011;12115;47.128;15.422;2022-08-18T13:31:44;17.40;;;3.97;;
23868;SDS011;12115;47.128;15.422;2022-08-18T13:34:23;24.92;;;4.03;;
23868;SDS011;12115;47.128;15.422;2022-08-18T13:36:55;9.20;;;3.28;;
23868;SDS011;12115;47.128;15.422;2022-08-18T13:39:23;16.52;;;4.00;;
23868;SDS011;12115;47.128;15.422;2022-08-18T13:41:59;17.52;;;4.55;;
23868;SDS011;12115;47.128;15.422;2022-08-18T13:44:47;10.73;;;3.58;;
23868;SDS011;12115;47.128;15.422;2022-08-18T13:47:19;18.20;;;3.63;;
23868;SDS011;12115;47.128;15.422;2022-08-18T13:49:48;19.67;;;3.58;;
23868;SDS011;12115;47.128;15.422;2022-08-18T13:52:24;17.50;;;3.25;;
23868;SDS011;12115;47.128;15.422;2022-08-18T13:55:02;18.95;;;3.72;;
23868;SDS011;12115;47.128;15.422;2022-08-18T13:57:34;24.55;;;3.45;;
23868;SDS011;12115;47.128;15.422;2022-08-18T14:00:03;16.70;;;3.67;;
23868;SDS011;12115;47.128;15.422;2022-08-18T14:05:10;15.60;;;3.90;;
23868;SDS011;12115;47.128;15.422;2022-08-18T14:07:37;14.30;;;3.47;;
23868;SDS011;12115;47.128;15.422;2022-08-18T14:10:07;23.17;;;2.75;;
23868;SDS011;12115;47.128;15.422;2022-08-18T14:12:38;75.13;;;7.03;;
23868;SDS011;12115;47.128;15.422;2022-08-18T14:15:08;86.95;;;7.35;;
23868;SDS011;12115;47.128;15.422;2022-08-18T14:17:39;42.40;;;3.95;;
23868;SDS011;12115;47.128;15.422;2022-08-18T14:20:07;24.77;;;2.95;;
23868;SDS011;12115;47.128;15.422;2022-08-18T14:22:54;14.85;;;1.85;;
23868;SDS011;12115;47.128;15.422;2022-08-18T14:25:50;10.77;;;1.60;;
23868;SDS011;12115;47.128;15.422;2022-08-18T14:28:36;10.75;;;1.67;;
23868;SDS011;12115;47.128;15.422;2022-08-18T14:31:06;6.82;;;1.70;;
23868;SDS011;12115;47.128;15.422;2022-08-18T14:33:34;9.00;;;1.50;;
23868;SDS011;12115;47.128;15.422;2022-08-18T14:36:17;10.10;;;1.90;;
23868;SDS011;12115;47.128;15.422;2022-08-18T14:38:55;8.35;;;1.70;;
23868;SDS011;12115;47.128;15.422;2022-08-18T14:41:23;8.30;;;1.55;;
23868;SDS011;12115;47.128;15.422;2022-08-18T14:43:52;8.98;;;1.70;;
23868;SDS011;12115;47.128;15.422;2022-08-18T14:46:40;6.63;;;2.08;;
23868;SDS011;12115;47.128;15.422;2022-08-18T14:49:17;8.82;;;2.17;;
23868;SDS011;12115;47.128;15.422;2022-08-18T14:51:56;9.10;;;1.55;;
23868;SDS011;12115;47.128;15.422;2022-08-18T14:54:24;11.43;;;2.58;;
23868;SDS011;12115;47.128;15.422;2022-08-18T14:56:55;11.88;;;1.83;;
23868;SDS011;12115;47.128;15.422;2022-08-18T14:59:24;7.00;;;1.30;;
23868;SDS011;12115;47.128;15.422;2022-08-18T15:01:53;9.77;;;1.83;;
23868;SDS011;12115;47.128;15.422;2022-08-18T15:04:21;7.43;;;1.45;;
23868;SDS011;12115;47.128;15.422;2022-08-18T15:06:48;9.48;;;1.70;;
23868;SDS011;12115;47.128;15.422;2022-08-18T15:09:26;7.53;;;1.80;;
23868;SDS011;12115;47.128;15.422;2022-08-18T15:11:56;9.50;;;1.73;;
23868;SDS011;12115;47.128;15.422;2022-08-18T15:14:27;6.20;;;1.42;;
23868;SDS011;12115;47.128;15.422;2022-08-18T15:17:01;6.75;;;1.63;;
23868;SDS011;12115;47.128;15.422;2022-08-18T15:19:38;8.75;;;1.60;;
23868;SDS011;12115;47.128;15.422;2022-08-18T15:22:25;8.30;;;1.45;;
23868;SDS011;12115;47.128;15.422;2022-08-18T15:25:13;8.40;;;1.75;;
23868;SDS011;12115;47.128;15.422;2022-08-18T15:27:58;8.77;;;1.90;;
23868;SDS011;12115;47.128;15.422;2022-08-18T15:30:26;6.93;;;1.55;;
23868;SDS011;12115;47.128;15.422;2022-08-18T15:32:53;5.55;;;1.60;;
23868;SDS011;12115;47.128;15.422;2022-08-18T15:35:21;6.43;;;1.55;;
23868;SDS011;12115;47.128;15.422;2022-08-18T15:37:48;6.07;;;1.38;;
23868;SDS011;12115;47.128;15.422;2022-08-18T15:40:24;6.72;;;1.75;;
23868;SDS011;12115;47.128;15.422;2022-08-18T15:43:05;7.30;;;1.23;;
23868;SDS011;12115;47.128;15.422;2022-08-18T15:45:37;9.93;;;1.80;;
23868;SDS011;12115;47.128;15.422;2022-08-18T15:48:08;8.38;;;1.92;;
23868;SDS011;12115;47.128;15.422;2022-08-18T15:50:38;6.10;;;2.03;;
23868;SDS011;12115;47.128;15.422;2022-08-18T15:53:07;5.50;;;1.40;;
23868;SDS011;12115;47.128;15.422;2022-08-18T15:55:39;8.80;;;1.73;;
23868;SDS011;12115;47.128;15.422;2022-08-18T15:58:09;6.70;;;1.63;;
23868;SDS011;12115;47.128;15.422;2022-08-18T16:00:39;9.50;;;1.75;;
23868;SDS011;12115;47.128;15.422;2022-08-18T16:03:11;7.07;;;1.80;;
23868;SDS011;12115;47.128;15.422;2022-08-18T16:05:43;8.23;;;1.73;;
23868;SDS011;12115;47.128;15.422;2022-08-18T16:08:20;9.23;;;1.73;;
23868;SDS011;12115;47.128;15.422;2022-08-18T16:10:48;9.77;;;2.13;;
23868;SDS011;12115;47.128;15.422;2022-08-18T16:13:15;7.38;;;1.35;;
23868;SDS011;12115;47.128;15.422;2022-08-18T16:15:43;13.05;;;1.92;;
23868;SDS011;12115;47.128;15.422;2022-08-18T16:18:14;8.43;;;1.97;;
23868;SDS011;12115;47.128;15.422;2022-08-18T16:20:42;8.13;;;1.63;;
23868;SDS011;12115;47.128;15.422;2022-08-18T16:23:10;9.38;;;2.08;;
23868;SDS011;12115;47.128;15.422;2022-08-18T16:25:39;9.75;;;2.15;;
23868;SDS011;12115;47.128;15.422;2022-08-18T16:28:07;6.20;;;1.75;;
23868;SDS011;12115;47.128;15.422;2022-08-18T16:30:34;13.55;;;2.70;;
23868;SDS011;12115;47.128;15.422;2022-08-18T16:33:03;9.50;;;1.70;;
23868;SDS011;12115;47.128;15.422;2022-08-18T16:35:31;8.25;;;1.83;;
23868;SDS011;12115;47.128;15.422;2022-08-18T16:38:03;6.40;;;1.95;;
23868;SDS011;12115;47.128;15.422;2022-08-18T16:40:34;7.88;;;2.15;;
23868;SDS011;12115;47.128;15.422;2022-08-18T16:43:02;8.38;;;1.75;;
23868;SDS011;12115;47.128;15.422;2022-08-18T16:45:30;6.57;;;1.88;;
23868;SDS011;12115;47.128;15.422;2022-08-18T16:47:59;7.63;;;1.65;;
23868;SDS011;12115;47.128;15.422;2022-08-18T16:50:26;5.95;;;1.65;;
23868;SDS011;12115;47.128;15.422;2022-08-18T16:52:53;8.57;;;1.60;;
23868;SDS011;12115;47.128;15.422;2022-08-18T16:55:20;7.75;;;2.10;;
23868;SDS011;12115;47.128;15.422;2022-08-18T16:57:47;11.43;;;1.98;;
23868;SDS011;12115;47.128;15.422;2022-08-18T17:00:34;7.22;;;1.77;;
23868;SDS011;12115;47.128;15.422;2022-08-18T17:03:21;8.45;;;2.13;;
23868;SDS011;12115;47.128;15.422;2022-08-18T17:06:09;7.40;;;1.90;;
23868;SDS011;12115;47.128;15.422;2022-08-18T17:08:38;8.50;;;2.08;;
23868;SDS011;12115;47.128;15.422;2022-08-18T17:11:08;7.88;;;2.00;;
23868;SDS011;12115;47.128;15.422;2022-08-18T17:13:39;6.78;;;1.65;;
23868;SDS011;12115;47.128;15.422;2022-08-18T17:16:07;7.88;;;1.80;;
23868;SDS011;12115;47.128;15.422;2022-08-18T17:18:35;11.35;;;1.50;;
23868;SDS011;12115;47.128;15.422;2022-08-18T17:21:04;6.93;;;2.13;;
23868;SDS011;12115;47.128;15.422;2022-08-18T17:23:33;9.20;;;2.30;;
23868;SDS011;12115;47.128;15.422;2022-08-18T17:26:05;7.78;;;2.17;;
23868;SDS011;12115;47.128;15.422;2022-08-18T17:28:48;5.55;;;1.63;;
23868;SDS011;12115;47.128;15.422;2022-08-18T17:31:21;7.80;;;1.80;;
23868;SDS011;12115;47.128;15.422;2022-08-18T17:33:50;11.75;;;2.15;;
23868;SDS011;12115;47.128;15.422;2022-08-18T17:36:35;6.95;;;2.00;;
23868;SDS011;12115;47.128;15.422;2022-08-18T17:39:19;6.82;;;1.63;;
23868;SDS011;12115;47.128;15.422;2022-08-18T17:41:57;7.18;;;1.52;;
23868;SDS011;12115;47.128;15.422;2022-08-18T17:44:43;6.82;;;2.28;;
23868;SDS011;12115;47.128;15.422;2022-08-18T17:50:02;7.45;;;1.95;;
23868;SDS011;12115;47.128;15.422;2022-08-18T17:53:02;5.28;;;1.40;;
23868;SDS011;12115;47.128;15.422;2022-08-18T17:55:54;7.15;;;2.17;;
23868;SDS011;12115;47.128;15.422;2022-08-18T18:01:07;7.55;;;1.85;;
23868;SDS011;12115;47.128;15.422;2022-08-18T18:03:35;7.13;;;1.77;;
23868;SDS011;12115;47.128;15.422;2022-08-18T18:12:17;7.35;;;1.60;;